Time;durP1;ratioP1;P1;durP2;ratioP2;P2;SDS_P1;SDS_P2;PMS_P1;PMS_P2;Temp;Humidity;BMP_temperature;BMP_pressure;BME280_temperature;BME280_humidity;BME280_pressure;Samples;Min_cycle;Max_cycle;Signal;HPM_P1;HPM_P2
2022/07/24 00:00:10;;;;;;;10.35;6.38;;;;;;;18.12;61.49;93662.31;5072319;28;20036;-42
2022/07/24 00:02:36;;;;;;;7.97;5.47;;;;;;;18.25;61.23;93665.94;5063835;28;20029;-41
2022/07/24 00:05:01;;;;;;;13.38;6.63;;;;;;;18.08;61.01;93664.78;5052161;28;20045;-42
2022/07/24 00:07:28;;;;;;;10.35;5.95;;;;;;;17.95;61.43;93667.34;5060651;28;20024;-39
2022/07/24 00:09:54;;;;;;;9.88;6.35;;;;;;;17.87;61.62;93645.16;5069824;28;20056;-46
2022/07/24 00:12:19;;;;;;;12.25;8.90;;;;;;;18.13;61.98;93652.56;5053622;28;20027;-41
2022/07/24 00:14:45;;;;;;;24.25;7.80;;;;;;;18.04;62.46;93655.41;5070808;28;20073;-38
2022/07/24 00:17:10;;;;;;;11.13;5.57;;;;;;;18.07;61.69;93654.22;5072000;28;20059;-40
2022/07/24 00:19:36;;;;;;;8.20;5.82;;;;;;;17.98;61.14;93666.88;5071089;28;20020;-40
2022/07/24 00:22:02;;;;;;;16.90;7.70;;;;;;;17.98;61.40;93669.69;5071737;28;20028;-41
2022/07/24 00:24:28;;;;;;;10.70;5.88;;;;;;;17.88;61.78;93666.19;5071866;28;20051;-39
2022/07/24 00:26:53;;;;;;;7.03;5.97;;;;;;;17.86;62.17;93663.25;5071796;28;20052;-42
2022/07/24 00:29:19;;;;;;;12.48;5.97;;;;;;;17.93;61.78;93662.34;5066566;28;20108;-42
2022/07/24 00:31:44;;;;;;;11.70;6.35;;;;;;;17.68;62.45;93661.97;5071366;28;20032;-39
2022/07/24 00:34:10;;;;;;;13.70;12.38;;;;;;;17.65;62.58;93659.63;5071833;28;20504;-42
2022/07/24 00:36:35;;;;;;;13.18;6.20;;;;;;;17.58;63.09;93654.94;5059246;28;20029;-39
2022/07/24 00:39:01;;;;;;;10.23;6.85;;;;;;;17.50;63.37;93651.53;5052004;28;20529;-39
2022/07/24 00:41:26;;;;;;;9.27;6.18;;;;;;;17.47;63.33;93647.88;5071702;28;20094;-39
2022/07/24 00:44:06;;;;;;;9.75;8.80;;;;;;;17.30;63.03;93622.91;5071062;28;20566;-42
2022/07/24 00:46:32;;;;;;;7.85;5.88;;;;;;;17.21;63.89;93637.59;5071897;28;20020;-42
2022/07/24 00:48:58;;;;;;;8.15;5.70;;;;;;;17.43;62.46;93650.38;5071071;28;20028;-39
2022/07/24 00:51:23;;;;;;;9.18;5.47;;;;;;;17.60;61.53;93658.59;5071653;28;20028;-39
2022/07/24 00:53:49;;;;;;;14.82;6.28;;;;;;;17.69;61.43;93649.47;5070489;28;20606;-42
2022/07/24 00:56:16;;;;;;;6.57;5.28;;;;;;;17.56;62.17;93649.19;5070984;28;20028;-39
2022/07/24 00:58:41;;;;;;;9.27;5.85;;;;;;;17.36;63.18;93651.25;5071037;28;20032;-40
2022/07/24 01:01:07;;;;;;;9.25;6.28;;;;;;;17.21;63.69;93651.56;5071240;28;20013;-41
2022/07/24 01:03:32;;;;;;;7.10;6.40;;;;;;;17.28;63.35;93651.38;5069836;28;20531;-40
2022/07/24 01:05:58;;;;;;;10.40;7.00;;;;;;;17.30;63.76;93648.75;5067668;28;20016;-42
2022/07/24 01:08:24;;;;;;;11.70;6.40;;;;;;;17.06;63.92;93649.78;5052031;28;20025;-44
2022/07/24 01:10:50;;;;;;;12.65;6.03;;;;;;;17.00;64.27;93635.38;5053710;28;20031;-45
2022/07/24 01:13:15;;;;;;;11.80;6.38;;;;;;;17.00;64.61;93640.25;5070995;28;20020;-44
2022/07/24 01:15:41;;;;;;;8.77;6.43;;;;;;;17.07;64.61;93644.94;5070704;28;20028;-42
2022/07/24 01:18:06;;;;;;;9.13;6.07;;;;;;;17.08;64.12;93640.81;5070677;28;20021;-42
2022/07/24 01:20:37;;;;;;;10.45;5.90;;;;;;;16.95;64.75;93641.25;5070053;28;20104;-41
2022/07/24 01:23:02;;;;;;;13.73;6.32;;;;;;;17.05;64.78;93633.63;5070397;28;20107;-43
2022/07/24 01:25:28;;;;;;;8.18;6.07;;;;;;;17.07;64.59;93639.34;5053571;28;20174;-43
2022/07/24 01:27:54;;;;;;;12.73;6.00;;;;;;;16.98;64.73;93642.88;5032943;28;20775;-42
2022/07/24 01:30:19;;;;;;;10.43;6.28;;;;;;;16.85;65.22;93640.53;5068384;28;20082;-43
2022/07/24 01:32:44;;;;;;;9.85;5.72;;;;;;;17.04;64.21;93635.69;5069798;28;20097;-44
2022/07/24 01:35:10;;;;;;;10.23;6.88;;;;;;;16.87;64.68;93641.38;5070034;28;20035;-45
2022/07/24 01:37:35;;;;;;;13.73;6.07;;;;;;;16.78;64.64;93630.25;5070699;28;20027;-44
2022/07/24 01:40:01;;;;;;;9.50;5.97;;;;;;;16.85;64.54;93646.09;5064855;28;20024;-42
2022/07/24 01:42:26;;;;;;;6.65;5.55;;;;;;;16.88;64.28;93634.50;5050835;28;20024;-41
2022/07/24 01:44:52;;;;;;;8.73;6.05;;;;;;;16.68;64.44;93638.56;5050453;28;20411;-41
2022/07/24 01:47:17;;;;;;;9.88;5.60;;;;;;;16.65;65.09;93634.19;5056952;28;20077;-41
2022/07/24 01:49:43;;;;;;;13.32;10.82;;;;;;;16.82;64.95;93648.00;5052130;28;20020;-43
2022/07/24 01:52:09;;;;;;;15.27;10.88;;;;;;;16.71;63.70;93625.53;5070053;28;20021;-44
2022/07/24 01:54:34;;;;;;;19.75;17.83;;;;;;;16.81;63.73;93643.72;5070053;28;20036;-43
2022/07/24 01:57:00;;;;;;;14.35;6.25;;;;;;;16.84;63.83;93636.25;5070174;28;20032;-44
2022/07/24 01:59:25;;;;;;;11.88;6.55;;;;;;;16.54;64.51;93618.75;5063065;28;20042;-43
2022/07/24 02:01:51;;;;;;;11.18;6.15;;;;;;;16.55;65.00;93636.94;5067979;28;20107;-43
2022/07/24 02:04:16;;;;;;;14.50;5.93;;;;;;;16.55;64.53;93636.19;5053688;28;20048;-43
2022/07/24 02:06:42;;;;;;;16.15;6.30;;;;;;;16.58;64.69;93626.69;5050155;28;20108;-44
2022/07/24 02:09:07;;;;;;;8.48;6.20;;;;;;;16.66;64.26;93636.38;5057402;28;20027;-44
2022/07/24 02:11:33;;;;;;;8.15;5.82;;;;;;;16.78;63.57;93627.44;5070093;28;20059;-44
2022/07/24 02:14:00;;;;;;;7.30;5.70;;;;;;;16.62;64.54;93624.94;5068840;28;20020;-44
2022/07/24 02:16:26;;;;;;;6.88;5.68;;;;;;;16.42;64.87;93612.25;5070050;28;20032;-42
2022/07/24 02:18:51;;;;;;;7.53;5.85;;;;;;;16.24;64.90;93610.16;5061198;28;20438;-42
2022/07/24 02:21:17;;;;;;;9.38;6.72;;;;;;;16.63;64.71;93629.19;5068003;28;20031;-42
2022/07/24 02:23:42;;;;;;;8.20;5.35;;;;;;;16.66;63.46;93630.06;5069794;28;20402;-42
2022/07/24 02:26:07;;;;;;;8.77;5.95;;;;;;;16.66;63.13;93639.16;5069910;28;20020;-41
2022/07/24 02:28:33;;;;;;;8.63;6.25;;;;;;;16.31;64.28;93651.06;5066761;28;20056;-41
2022/07/24 02:30:58;;;;;;;16.25;5.80;;;;;;;16.20;64.69;93640.50;5053396;28;20020;-41
2022/07/24 02:33:24;;;;;;;11.32;7.20;;;;;;;16.17;65.51;93634.03;5056131;28;20021;-41
2022/07/24 02:35:49;;;;;;;13.77;5.90;;;;;;;16.05;65.86;93637.94;5050073;28;20379;-41
2022/07/24 02:38:15;;;;;;;10.23;8.65;;;;;;;15.96;65.85;93636.56;5050039;28;20025;-41
2022/07/24 02:40:40;;;;;;;13.20;6.78;;;;;;;15.83;66.48;93637.69;5069154;28;20021;-41
2022/07/24 02:43:05;;;;;;;14.57;13.00;;;;;;;15.85;66.54;93634.34;5069669;28;20078;-41
2022/07/24 02:45:31;;;;;;;15.57;6.85;;;;;;;16.04;66.11;93634.41;5069282;28;20082;-41
2022/07/24 02:47:57;;;;;;;15.10;13.05;;;;;;;16.14;65.91;93629.59;5069840;28;20027;-41
2022/07/24 02:50:24;;;;;;;18.15;10.98;;;;;;;16.19;65.94;93627.88;5068989;28;20464;-40
2022/07/24 02:52:50;;;;;;;9.13;6.88;;;;;;;16.07;66.71;93632.53;5069827;28;20085;-41
2022/07/24 02:55:16;;;;;;;11.02;6.90;;;;;;;15.93;66.32;93626.59;5069789;28;20028;-41
2022/07/24 02:57:41;;;;;;;9.50;6.38;;;;;;;15.77;66.60;93628.84;5069481;28;20027;-40
2022/07/24 03:00:10;;;;;;;10.70;6.28;;;;;;;15.73;67.16;93622.25;5069186;28;20024;-41
2022/07/24 03:02:35;;;;;;;12.60;5.95;;;;;;;15.70;66.39;93595.59;5069003;28;20034;-42
2022/07/24 03:05:02;;;;;;;9.20;6.43;;;;;;;15.97;65.98;93617.81;5068249;28;20045;-42
2022/07/24 03:07:28;;;;;;;11.90;6.32;;;;;;;16.03;65.99;93621.78;5068956;28;20099;-41
2022/07/24 03:09:53;;;;;;;15.10;6.18;;;;;;;16.03;65.70;93621.78;5051717;28;20489;-41
2022/07/24 03:12:19;;;;;;;8.93;6.15;;;;;;;15.86;66.75;93616.31;5049877;28;20023;-43
2022/07/24 03:14:44;;;;;;;9.75;6.38;;;;;;;15.77;66.65;93617.72;5049778;28;20469;-42
2022/07/24 03:17:10;;;;;;;9.55;6.00;;;;;;;15.77;66.28;93622.56;5067729;28;20028;-43
2022/07/24 03:19:35;;;;;;;15.60;6.07;;;;;;;15.73;66.37;93617.41;5069490;28;20108;-42
2022/07/24 03:22:01;;;;;;;8.00;5.93;;;;;;;15.71;66.49;93617.25;5068281;28;20020;-41
2022/07/24 03:24:26;;;;;;;9.25;5.65;;;;;;;15.73;66.12;93620.19;5069868;28;20067;-41
2022/07/24 03:26:52;;;;;;;12.10;7.72;;;;;;;15.60;66.36;93619.81;5072195;28;20202;-42
2022/07/24 03:29:17;;;;;;;10.48;6.70;;;;;;;15.64;66.31;93618.09;5065634;28;20119;-41
2022/07/24 03:31:43;;;;;;;13.30;7.75;;;;;;;15.62;66.28;93612.38;5073158;28;20024;-41
2022/07/24 03:34:08;;;;;;;9.25;6.63;;;;;;;15.57;66.64;93607.78;5070633;28;20024;-41
2022/07/24 03:36:35;;;;;;;8.98;6.80;;;;;;;15.67;66.31;93608.59;5072370;28;20477;-41
2022/07/24 03:39:00;;;;;;;8.65;7.35;;;;;;;15.57;66.81;93607.09;5072584;28;20016;-42
2022/07/24 03:41:26;;;;;;;9.32;6.90;;;;;;;15.27;67.36;93605.41;5071872;28;20020;-42
2022/07/24 03:43:51;;;;;;;8.88;6.25;;;;;;;15.42;67.62;93610.75;5072315;28;20139;-42
2022/07/24 03:46:17;;;;;;;7.60;6.20;;;;;;;15.74;66.18;93607.75;5072117;28;20027;-42
2022/07/24 03:48:42;;;;;;;8.02;6.03;;;;;;;15.98;65.38;93619.28;5072283;28;20039;-42
2022/07/24 03:51:08;;;;;;;14.18;6.18;;;;;;;15.85;64.99;93626.69;5072620;28;20032;-42
2022/07/24 03:53:33;;;;;;;11.60;6.38;;;;;;;15.87;64.39;93626.13;5062824;28;20032;-42
2022/07/24 03:55:59;;;;;;;7.97;5.53;;;;;;;15.83;64.16;93611.91;5054670;28;20028;-42
2022/07/24 03:58:24;;;;;;;11.65;6.30;;;;;;;15.92;64.69;93625.13;5052430;28;20060;-42
2022/07/24 04:00:50;;;;;;;11.77;6.18;;;;;;;15.70;65.37;93631.75;5059737;28;20074;-42
2022/07/24 04:03:15;;;;;;;13.02;8.02;;;;;;;15.89;65.38;93631.84;5072104;28;20025;-42
2022/07/24 04:05:40;;;;;;;18.65;9.88;;;;;;;15.92;66.30;93633.47;5072233;28;20037;-41
2022/07/24 04:08:06;;;;;;;44.13;30.02;;;;;;;15.87;66.30;93626.13;5072343;28;20052;-41
2022/07/24 04:10:31;;;;;;;86.95;51.20;;;;;;;15.92;66.73;93627.91;5071479;28;20037;-41
2022/07/24 04:12:57;;;;;;;100.43;56.72;;;;;;;15.72;67.76;93615.22;5070416;28;20028;-41
2022/07/24 04:15:22;;;;;;;62.28;42.22;;;;;;;15.92;67.95;93616.75;5071469;28;20039;-41
2022/07/24 04:17:48;;;;;;;35.63;20.77;;;;;;;16.14;67.00;93620.50;5070593;28;20020;-42
2022/07/24 04:20:13;;;;;;;23.85;14.45;;;;;;;16.28;66.08;93622.34;5068078;28;20028;-40
2022/07/24 04:22:39;;;;;;;14.30;9.07;;;;;;;16.37;65.45;93624.38;5070736;28;20041;-41
2022/07/24 04:25:05;;;;;;;15.30;8.32;;;;;;;16.35;65.39;93624.25;5071690;28;20048;-41
2022/07/24 04:27:31;;;;;;;10.48;6.40;;;;;;;16.31;64.85;93626.72;5071985;28;20070;-42
2022/07/24 04:29:57;;;;;;;10.63;5.93;;;;;;;16.50;63.85;93629.59;5071617;28;20028;-42
2022/07/24 04:32:23;;;;;;;11.23;6.68;;;;;;;16.58;63.94;93635.78;5071159;28;20020;-43
2022/07/24 04:34:49;;;;;;;11.60;6.80;;;;;;;16.63;64.22;93628.47;5070587;28;20024;-42
2022/07/24 04:37:14;;;;;;;14.10;6.45;;;;;;;16.46;65.46;93628.50;5070790;28;20025;-43
2022/07/24 04:39:40;;;;;;;9.35;7.10;;;;;;;16.53;65.95;93625.66;5059954;28;20024;-43
2022/07/24 04:42:05;;;;;;;13.85;9.32;;;;;;;16.64;67.00;93630.66;5057664;28;20409;-43
2022/07/24 04:44:31;;;;;;;11.80;8.10;;;;;;;16.56;67.46;93627.28;5051563;28;20101;-44
2022/07/24 04:46:56;;;;;;;13.35;8.63;;;;;;;16.71;67.45;93629.06;5051655;28;20032;-43
2022/07/24 04:49:22;;;;;;;11.65;7.90;;;;;;;16.72;67.65;93636.09;5051734;28;20025;-44
2022/07/24 04:51:47;;;;;;;12.82;9.57;;;;;;;16.81;67.72;93623.47;5054942;28;20509;-44
2022/07/24 04:54:13;;;;;;;11.82;9.85;;;;;;;16.78;68.39;93627.44;5071524;28;20020;-43
2022/07/24 04:56:38;;;;;;;13.40;9.63;;;;;;;17.16;67.30;93619.09;5070642;28;20047;-45
2022/07/24 04:59:04;;;;;;;12.15;7.88;;;;;;;17.19;67.11;93626.28;5070939;28;20024;-46
2022/07/24 05:01:29;;;;;;;9.90;8.05;;;;;;;17.23;66.54;93626.59;5070413;28;20095;-44
2022/07/24 05:03:56;;;;;;;13.80;7.35;;;;;;;17.34;65.14;93631.56;5070855;28;20483;-47
2022/07/24 05:06:23;;;;;;;13.23;6.78;;;;;;;17.59;65.03;93634.03;5070891;28;20047;-42
2022/07/24 05:08:48;;;;;;;9.88;7.28;;;;;;;17.56;64.90;93630.41;5067270;28;20024;-45
2022/07/24 05:11:14;;;;;;;9.55;6.57;;;;;;;17.40;65.58;93627.16;5070516;28;20012;-41
2022/07/24 05:13:39;;;;;;;10.57;7.38;;;;;;;17.46;65.69;93624.06;5070919;28;20490;-41
2022/07/24 05:16:05;;;;;;;10.60;7.18;;;;;;;17.63;65.91;93623.91;5047052;28;20043;-42
2022/07/24 05:18:30;;;;;;;16.38;13.27;;;;;;;17.76;65.79;93626.22;5069607;28;20036;-42
2022/07/24 05:20:56;;;;;;;18.17;11.90;;;;;;;17.83;65.78;93621.78;5070562;28;20056;-42
2022/07/24 05:23:21;;;;;;;14.73;10.85;;;;;;;18.02;65.22;93611.28;5060402;28;20025;-43
2022/07/24 05:25:47;;;;;;;11.90;10.68;;;;;;;18.25;65.92;93624.75;5071285;28;20430;-44
2022/07/24 05:28:12;;;;;;;9.38;7.78;;;;;;;18.37;65.33;93622.75;5070710;28;20557;-43
2022/07/24 05:30:38;;;;;;;8.07;7.28;;;;;;;18.46;65.29;93622.00;5069481;28;20036;-44
2022/07/24 05:33:03;;;;;;;10.20;6.78;;;;;;;18.64;64.64;93616.91;5068818;28;20107;-42
2022/07/24 05:35:29;;;;;;;11.07;6.38;;;;;;;18.85;64.13;93611.31;5070060;28;20035;-42
2022/07/24 05:37:55;;;;;;;11.20;7.35;;;;;;;18.78;62.76;93618.59;5069397;28;20036;-42
2022/07/24 05:40:20;;;;;;;14.07;6.78;;;;;;;18.99;61.49;93617.13;5069717;28;20074;-42
2022/07/24 05:42:46;;;;;;;14.77;7.70;;;;;;;19.11;62.51;93607.44;5066997;28;20032;-42
2022/07/24 05:45:11;;;;;;;11.10;6.78;;;;;;;19.20;62.54;93609.44;5071294;28;20029;-44
2022/07/24 05:47:38;;;;;;;16.60;7.47;;;;;;;19.34;62.40;93615.97;5068549;28;20025;-43
2022/07/24 05:50:12;;;;;;;52.38;12.32;;;;;;;19.35;62.25;93611.84;5066542;28;20020;-46
2022/07/24 05:52:37;;;;;;;14.30;8.38;;;;;;;19.55;62.39;93612.41;5070116;28;20032;-43
2022/07/24 05:55:04;;;;;;;15.57;7.35;;;;;;;19.62;62.35;93609.38;5070613;28;20119;-37
2022/07/24 05:57:29;;;;;;;10.35;6.43;;;;;;;19.85;61.19;93619.91;5069295;28;20028;-38
2022/07/24 05:59:55;;;;;;;13.32;8.00;;;;;;;19.99;62.01;93606.06;5069545;28;20024;-37
2022/07/24 06:02:20;;;;;;;16.23;9.90;;;;;;;20.08;60.36;93614.34;5063875;28;20105;-37
2022/07/24 06:04:46;;;;;;;16.90;8.55;;;;;;;20.31;61.14;93613.66;5064684;28;20583;-38
2022/07/24 06:07:12;;;;;;;17.83;8.80;;;;;;;20.39;59.67;93605.72;5069725;28;20091;-38
2022/07/24 06:09:37;;;;;;;12.27;7.68;;;;;;;20.52;59.10;93599.50;5068788;28;20029;-38
2022/07/24 06:12:04;;;;;;;13.18;7.18;;;;;;;20.67;60.07;93599.00;5065966;28;20026;-40
2022/07/24 06:14:30;;;;;;;12.57;7.60;;;;;;;20.82;58.34;93597.75;5070385;28;20028;-39
2022/07/24 06:16:56;;;;;;;24.75;8.07;;;;;;;20.99;59.04;93602.94;5069321;28;20067;-41
2022/07/24 06:19:21;;;;;;;16.45;7.15;;;;;;;21.19;58.55;93595.00;5060504;28;20044;-39
2022/07/24 06:21:47;;;;;;;9.70;7.07;;;;;;;21.35;57.69;93598.72;5059367;28;20024;-39
2022/07/24 06:24:12;;;;;;;12.15;6.90;;;;;;;21.48;57.66;93598.06;5070289;28;20468;-39
2022/07/24 06:26:38;;;;;;;10.50;6.30;;;;;;;21.54;55.90;93604.75;5066206;28;20043;-40
2022/07/24 06:29:04;;;;;;;13.70;5.80;;;;;;;21.57;54.09;93600.69;5068205;28;20437;-39
2022/07/24 06:31:29;;;;;;;6.68;5.97;;;;;;;21.67;54.34;93598.47;5062266;28;20016;-39
2022/07/24 06:33:55;;;;;;;11.15;5.95;;;;;;;21.71;54.40;93597.94;5067845;28;20402;-39
2022/07/24 06:36:21;;;;;;;10.30;6.63;;;;;;;21.79;52.16;93592.75;5067736;28;20024;-39
2022/07/24 06:38:46;;;;;;;14.68;6.78;;;;;;;21.95;54.79;93588.06;5067765;28;20066;-40
2022/07/24 06:41:11;;;;;;;13.63;6.07;;;;;;;22.07;53.96;93588.69;5067724;28;20043;-39
2022/07/24 06:43:38;;;;;;;11.25;6.22;;;;;;;22.31;52.69;93584.38;5066467;28;20485;-39
2022/07/24 06:46:04;;;;;;;11.07;6.72;;;;;;;22.48;52.96;93581.03;5066559;28;20039;-39
2022/07/24 06:48:29;;;;;;;11.20;6.72;;;;;;;22.66;52.91;93581.28;5066885;28;20020;-38
2022/07/24 06:50:55;;;;;;;12.60;6.90;;;;;;;22.81;51.80;93577.84;5067360;28;20028;-38
2022/07/24 06:53:20;;;;;;;11.82;7.10;;;;;;;22.92;52.22;93574.19;5066901;28;20120;-39
2022/07/24 06:55:47;;;;;;;8.17;6.07;;;;;;;23.03;50.04;93573.34;5066840;28;20131;-40
2022/07/24 06:58:13;;;;;;;5.72;5.13;;;;;;;23.19;49.55;93570.59;5067127;28;20592;-39
2022/07/24 07:00:39;;;;;;;7.50;5.45;;;;;;;23.28;47.35;93575.28;5068115;28;20028;-40
2022/07/24 07:03:05;;;;;;;8.75;5.78;;;;;;;23.49;50.42;93572.09;5070958;28;20032;-39
2022/07/24 07:05:31;;;;;;;10.80;7.07;;;;;;;23.71;49.70;93573.16;5071017;28;20113;-40
2022/07/24 07:07:57;;;;;;;14.85;7.78;;;;;;;23.80;48.70;93566.53;5070913;28;20029;-40
2022/07/24 07:10:23;;;;;;;9.43;5.85;;;;;;;24.02;47.93;93572.47;5072187;28;20032;-40
2022/07/24 07:12:49;;;;;;;12.30;6.15;;;;;;;24.19;48.24;93579.63;5070859;28;20085;-40
2022/07/24 07:15:15;;;;;;;7.00;5.05;;;;;;;24.39;47.50;93574.88;5071163;28;20017;-40
2022/07/24 07:17:41;;;;;;;8.00;5.05;;;;;;;24.68;44.98;93572.69;5071731;28;20048;-39
2022/07/24 07:20:08;;;;;;;7.85;5.72;;;;;;;24.85;44.08;93576.97;5068739;28;20016;-39
2022/07/24 07:22:33;;;;;;;5.55;4.78;;;;;;;24.90;43.81;93570.13;5068666;28;20025;-39
2022/07/24 07:24:59;;;;;;;9.40;5.50;;;;;;;25.16;44.62;93570.50;5073714;28;20504;-39
2022/07/24 07:27:24;;;;;;;7.30;5.00;;;;;;;25.41;45.28;93565.19;5079144;28;20016;-39
2022/07/24 07:29:50;;;;;;;9.23;5.18;;;;;;;25.60;46.42;93571.63;5072978;28;20478;-39
2022/07/24 07:32:15;;;;;;;9.63;5.72;;;;;;;25.84;44.54;93564.09;5072134;28;20391;-40
2022/07/24 07:34:41;;;;;;;9.43;5.10;;;;;;;26.52;43.02;93566.00;5072277;28;20024;-40
2022/07/24 07:37:06;;;;;;;9.40;5.28;;;;;;;27.19;41.67;93557.78;5072081;28;20024;-40
2022/07/24 07:39:32;;;;;;;6.50;5.45;;;;;;;28.01;40.30;93569.03;5064525;28;20029;-40
2022/07/24 07:41:57;;;;;;;7.45;4.88;;;;;;;29.01;38.18;93570.56;5069407;28;20028;-39
2022/07/24 07:44:23;;;;;;;16.90;5.75;;;;;;;29.43;38.80;93565.31;5072552;28;20023;-41
2022/07/24 07:46:48;;;;;;;11.18;5.57;;;;;;;29.85;37.67;93558.56;5072132;28;20482;-40
2022/07/24 07:49:14;;;;;;;21.30;6.43;;;;;;;30.08;37.06;93562.69;5071729;28;20055;-41
2022/07/24 07:51:39;;;;;;;6.47;5.07;;;;;;;30.21;37.04;93561.56;5072490;28;20059;-41
2022/07/24 07:54:05;;;;;;;6.47;5.07;;;;;;;30.31;35.58;93561.06;5072816;28;20112;-41
2022/07/24 07:56:32;;;;;;;10.50;5.38;;;;;;;30.65;36.71;93556.09;5072876;28;20029;-41
2022/07/24 07:58:58;;;;;;;9.25;5.50;;;;;;;31.13;35.55;93559.22;5072262;28;20086;-41
2022/07/24 08:01:24;;;;;;;6.13;4.60;;;;;;;31.61;35.54;93565.13;5066566;28;20020;-40
2022/07/24 08:03:49;;;;;;;7.18;4.78;;;;;;;31.51;33.71;93559.25;5063552;28;20117;-39
2022/07/24 08:06:15;;;;;;;8.88;4.60;;;;;;;31.14;33.40;93566.38;5071770;28;20040;-39
2022/07/24 08:08:40;;;;;;;12.43;5.15;;;;;;;31.15;35.09;93568.56;5072547;28;20020;-40
2022/07/24 08:11:06;;;;;;;7.68;4.60;;;;;;;31.14;34.57;93561.41;5072079;28;20052;-40
2022/07/24 08:13:33;;;;;;;5.90;4.80;;;;;;;31.05;34.82;93565.50;5056672;28;20031;-39
2022/07/24 08:15:58;;;;;;;7.40;4.78;;;;;;;30.89;34.68;93573.00;5052152;28;20507;-39
2022/07/24 08:18:24;;;;;;;10.43;4.75;;;;;;;30.95;35.58;93564.59;5056773;28;20025;-39
2022/07/24 08:20:49;;;;;;;9.75;5.10;;;;;;;31.69;34.28;93570.97;5052107;28;20517;-41
2022/07/24 08:23:15;;;;;;;9.50;5.30;;;;;;;32.44;32.20;93570.78;5064032;28;20029;-41
2022/07/24 08:25:41;;;;;;;9.73;4.50;;;;;;;32.59;32.82;93566.00;5071915;28;20028;-41
2022/07/24 08:28:06;;;;;;;10.15;5.07;;;;;;;32.28;33.05;93555.50;5073032;28;20020;-43
2022/07/24 08:30:32;;;;;;;13.88;6.30;;;;;;;32.18;33.89;93568.22;5079325;28;20020;-43
2022/07/24 08:32:58;;;;;;;6.70;4.90;;;;;;;32.08;33.18;93568.09;5078165;28;20463;-41
2022/07/24 08:35:24;;;;;;;10.98;5.15;;;;;;;32.32;33.72;93579.16;5077830;28;20020;-41
2022/07/24 08:37:50;;;;;;;8.95;5.30;;;;;;;32.82;33.44;93573.44;5070700;28;20024;-41
2022/07/24 08:40:16;;;;;;;11.98;5.07;;;;;;;33.02;30.28;93573.00;5065152;28;20421;-41
2022/07/24 08:42:42;;;;;;;8.77;4.70;;;;;;;32.53;31.58;93565.91;5070601;28;20025;-39
2022/07/24 08:45:08;;;;;;;10.13;5.20;;;;;;;32.16;31.81;93567.50;5071643;28;20481;-39
2022/07/24 08:47:34;;;;;;;14.23;5.43;;;;;;;31.91;32.46;93572.06;5071496;28;20536;-39
2022/07/24 08:49:59;;;;;;;13.50;5.47;;;;;;;31.78;33.43;93561.13;5049629;28;20104;-39
2022/07/24 08:52:26;;;;;;;9.52;5.05;;;;;;;31.89;34.07;93568.44;5061785;28;20077;-39
2022/07/24 08:54:52;;;;;;;10.75;5.50;;;;;;;31.80;33.88;93566.88;5069449;28;20028;-39
2022/07/24 08:57:18;;;;;;;11.02;4.80;;;;;;;31.88;33.82;93567.72;5070747;28;20067;-39
2022/07/24 08:59:44;;;;;;;9.65;4.93;;;;;;;32.28;34.84;93567.66;5070711;28;20506;-39
2022/07/24 09:02:09;;;;;;;5.60;5.03;;;;;;;32.43;32.09;93566.47;5070904;28;20028;-39
2022/07/24 09:04:41;;;;;;;6.90;4.90;;;;;;;33.15;30.67;93569.59;5051221;28;20045;-39
2022/07/24 09:07:15;;;;;;;11.50;4.78;;;;;;;34.29;29.36;93572.13;5051466;28;20032;-40
2022/07/24 09:09:42;;;;;;;6.95;4.78;;;;;;;34.98;28.65;93548.16;5065261;28;20099;-40
2022/07/24 09:12:12;;;;;;;9.75;5.10;;;;;;;35.94;28.38;93554.88;5070733;28;20035;-41
2022/07/24 09:14:40;;;;;;;22.70;7.13;;;;;;;36.33;27.31;93559.22;5071326;28;20052;-40
2022/07/24 09:17:10;;;;;;;8.73;5.27;;;;;;;36.07;25.10;93551.31;5071186;28;20036;-39
2022/07/24 09:19:58;;;;;;;6.50;4.82;;;;;;;36.75;25.57;93559.16;5070373;28;20729;-41
2022/07/24 09:22:42;;;;;;;11.77;4.88;;;;;;;37.68;25.59;93553.75;5058692;28;20112;-41
2022/07/24 09:25:11;;;;;;;5.90;4.30;;;;;;;38.30;24.38;93549.72;5066052;28;20541;-42
2022/07/24 09:27:39;;;;;;;8.38;4.95;;;;;;;38.53;22.33;93550.94;5070694;28;20024;-40
2022/07/24 09:30:06;;;;;;;6.13;4.80;;;;;;;38.81;22.90;93549.25;5067913;28;20048;-41
2022/07/24 09:32:32;;;;;;;7.50;4.70;;;;;;;38.61;23.21;93550.16;5069822;28;20112;-41
2022/07/24 09:34:58;;;;;;;11.35;6.93;;;;;;;39.00;23.25;93547.59;5070631;28;20512;-40
2022/07/24 09:37:26;;;;;;;58.58;29.35;;;;;;;38.53;23.07;93553.13;5070747;28;20052;-39
2022/07/24 09:39:51;;;;;;;;;;;;;;;38.46;23.09;93549.59;5069934;28;20025;-39
2022/07/24 09:42:18;;;;;;;7.15;6.10;;;;;;;38.62;24.05;93552.28;5069459;28;19916;-40
2022/07/24 09:44:44;;;;;;;13.45;8.13;;;;;;;38.73;22.56;93549.31;5048862;28;20032;-40
2022/07/24 09:47:14;;;;;;;7.22;5.00;;;;;;;38.68;23.49;93549.38;5068586;28;20481;-40
2022/07/24 09:49:40;;;;;;;62.85;30.02;;;;;;;37.90;24.12;93552.91;5068849;28;20032;-39
2022/07/24 09:52:07;;;;;;;14.57;8.88;;;;;;;36.95;25.56;93544.72;5067166;28;20020;-38
2022/07/24 09:54:53;;;;;;;7.00;5.40;;;;;;;35.92;26.09;93535.50;5065770;28;20081;-39
2022/07/24 09:57:27;;;;;;;52.70;23.48;;;;;;;35.59;26.80;93540.47;5067522;28;20128;-38
2022/07/24 10:00:01;;;;;;;23.25;12.40;;;;;;;36.10;26.25;93537.66;5065222;28;20016;-39
2022/07/24 10:02:32;;;;;;;12.55;7.05;;;;;;;36.45;24.94;93536.22;5068077;28;20532;-39
2022/07/24 10:05:00;;;;;;;11.10;6.88;;;;;;;36.70;24.42;93531.13;5067755;28;20043;-39
2022/07/24 10:07:27;;;;;;;6.90;4.72;;;;;;;36.88;23.17;93533.94;5059944;28;20094;-39
2022/07/24 10:09:55;;;;;;;10.70;5.38;;;;;;;37.26;24.23;93539.56;5065550;28;20117;-40
2022/07/24 10:12:23;;;;;;;6.65;5.20;;;;;;;37.41;24.92;93529.41;5065536;28;20032;-39
2022/07/24 10:14:50;;;;;;;20.65;5.82;;;;;;;36.65;25.74;93538.31;5066488;28;20085;-40
2022/07/24 10:17:17;;;;;;;7.70;5.32;;;;;;;36.79;23.26;93535.41;5064754;28;20020;-41
2022/07/24 10:19:47;;;;;;;9.18;4.95;;;;;;;36.97;19.84;93536.09;5069671;28;20028;-43
2022/07/24 10:22:14;;;;;;;5.35;4.18;;;;;;;37.37;21.80;93529.44;5069326;28;20044;-43
2022/07/24 10:25:05;;;;;;;7.18;4.82;;;;;;;38.44;20.72;93532.28;5069279;28;20032;-43
2022/07/24 10:27:33;;;;;;;9.07;4.68;;;;;;;38.70;19.59;93527.72;5067618;28;20043;-40
2022/07/24 10:30:07;;;;;;;7.28;4.53;;;;;;;38.07;19.60;93530.44;5068047;28;20020;-44
2022/07/24 10:32:34;;;;;;;17.60;6.40;;;;;;;37.81;20.19;93523.44;5069108;28;20559;-40
2022/07/24 10:35:22;;;;;;;6.30;4.87;;;;;;;37.59;19.75;93519.94;5050557;28;20073;-40
2022/07/24 10:38:09;;;;;;;5.53;5.03;;;;;;;36.95;20.07;93521.69;5054442;28;20555;-42
2022/07/24 10:40:51;;;;;;;6.15;5.55;;;;;;;36.99;20.22;93512.34;5052276;28;20028;-41
2022/07/24 10:43:18;;;;;;;10.10;5.05;;;;;;;37.19;23.22;93507.19;5072793;28;20036;-42
2022/07/24 10:46:03;;;;;;;6.38;4.38;;;;;;;37.45;21.49;93505.66;5073486;28;20520;-41
2022/07/24 10:48:41;;;;;;;11.05;5.88;;;;;;;37.76;19.64;93504.72;5064901;28;20081;-41
2022/07/24 10:51:13;;;;;;;8.20;4.90;;;;;;;38.11;19.58;93504.44;5082217;28;20037;-41
2022/07/24 10:53:39;;;;;;;11.20;5.20;;;;;;;38.28;21.37;93512.25;5072726;28;20031;-41
2022/07/24 10:56:20;;;;;;;10.05;5.32;;;;;;;38.04;18.19;93514.59;5071266;28;20036;-41
2022/07/24 10:59:06;;;;;;;5.80;4.70;;;;;;;38.00;20.59;93506.72;5068017;28;20576;-44
2022/07/24 11:01:44;;;;;;;7.25;5.18;;;;;;;37.91;19.37;93497.41;5069230;28;20119;-42
2022/07/24 11:04:18;;;;;;;29.33;13.63;;;;;;;38.13;18.91;93493.63;5068094;28;20044;-41
2022/07/24 11:06:45;;;;;;;186.35;101.68;;;;;;;38.00;20.18;93498.06;5053433;28;20037;-42
2022/07/24 11:09:12;;;;;;;19.60;13.95;;;;;;;38.21;19.84;93490.66;5053757;28;20024;-40
2022/07/24 11:12:01;;;;;;;12.00;9.05;;;;;;;38.34;19.13;93489.09;5062317;28;20031;-41
2022/07/24 11:14:46;;;;;;;16.60;6.20;;;;;;;38.05;20.12;93487.94;5062027;28;20032;-42
2022/07/24 11:17:41;;;;;;;5.18;4.68;;;;;;;37.85;20.00;93490.97;5071875;28;20118;-43
2022/07/24 11:20:18;;;;;;;5.00;4.60;;;;;;;37.19;20.61;93489.91;5072694;28;20052;-41
2022/07/24 11:22:47;;;;;;;18.27;10.15;;;;;;;36.80;20.02;93477.13;5072477;28;20111;-41
2022/07/24 11:25:20;;;;;;;54.80;35.58;;;;;;;36.30;21.97;93475.09;5071828;28;20043;-42
2022/07/24 11:27:46;;;;;;;12.85;6.28;;;;;;;35.89;21.79;93478.75;5060323;28;20620;-40